KIMT/IMT METAR and TAF weather

Enter ICAO airport designator
Station Type Date Time Source
KIMT METAR 2020/10/20 16:54 UTC NOAA

KIMT 201654Z AUTO 15007KT 10SM CLR 04/M08 A3030 RMK AO2 SLP276 T00391078


Station Type Date Time Source
KIMT Decoded METAR 2020/10/20 16:54 UTC NOAA

IRON MOUNTAIN FORD AIRPORT, MI, United States (KIMT) 45-49N 88-07W 349M
Oct 20, 2020 - 12:54 PM EDT / 2020.10.20 1654 UTC
Wind: from the SSE (150 degrees) at 8 MPH (7 KT):0
Visibility: 10 mile(s):0
Sky conditions: clear
Temperature: 39.0 F (3.9 C)
Dew Point: 18.0 F (-7.8 C)
Relative Humidity: 42%
Pressure (altimeter): 30.3 in. Hg (1026 hPa)
ob: KIMT 201654Z AUTO 15007KT 10SM CLR 04/M08 A3030 RMK AO2 SLP276 T00391078
cycle: 17

Station Type Date Time Source
KIMT TAF UTC NOAA

Error!

Example: see airport list